KAUW/AUW METAR and TAF weather

Enter ICAO airport designator
Station Type Date Time Source
KAUW METAR 2018/04/20 07:54 UTC NOAA

KAUW 200754Z AUTO 00000KT 10SM CLR M02/M06 A3042 RMK AO2 SLP318 T10221056


Station Type Date Time Source
KAUW Decoded METAR 2018/04/20 07:54 UTC NOAA

WAUSAU DOWNTOWN AIRPORT, WI, United States (KAUW) 44-56N 089-37W 362M
Apr 20, 2018 - 03:54 AM EDT / 2018.04.20 0754 UTC
Wind: Calm:0
Visibility: 10 mile(s):0
Sky conditions: clear
Temperature: 28.0 F (-2.2 C)
Dew Point: 21.9 F (-5.6 C)
Relative Humidity: 77%
Pressure (altimeter): 30.42 in. Hg (1030 hPa)
ob: KAUW 200754Z AUTO 00000KT 10SM CLR M02/M06 A3042 RMK AO2 SLP318 T10221056
cycle: 8

Station Type Date Time Source
KAUW TAF 2018/04/20 06:22 UTC NOAA

TAF KAUW 200520Z 2006/2106 28004KT P6SM SKC
FM201400 23007KT P6SM SCT250
FM202300 21004KT P6SM SCT250


Example: see airport list